sensor_id;sensor_type;location;lat;lon;timestamp;temperature;humidity
21047;DHT22;10682;50.874;3.656;2022-12-18T00:01:33;-5.90;99.90
21047;DHT22;10682;50.874;3.656;2022-12-18T00:04:06;-6.00;99.90
21047;DHT22;10682;50.874;3.656;2022-12-18T00:06:35;-6.10;99.90
21047;DHT22;10682;50.874;3.656;2022-12-18T00:09:04;-6.10;99.90
21047;DHT22;10682;50.874;3.656;2022-12-18T00:11:35;-6.20;99.90
21047;DHT22;10682;50.874;3.656;2022-12-18T00:14:05;-6.30;99.90
21047;DHT22;10682;50.874;3.656;2022-12-18T00:16:35;-6.30;99.90
21047;DHT22;10682;50.874;3.656;2022-12-18T00:19:04;-6.30;99.90
21047;DHT22;10682;50.874;3.656;2022-12-18T00:21:32;-6.30;99.90
21047;DHT22;10682;50.874;3.656;2022-12-18T00:23:59;-6.20;99.90
21047;DHT22;10682;50.874;3.656;2022-12-18T00:26:29;-6.30;99.90
21047;DHT22;10682;50.874;3.656;2022-12-18T00:29:00;-6.30;99.90
21047;DHT22;10682;50.874;3.656;2022-12-18T00:31:31;-6.40;99.90
21047;DHT22;10682;50.874;3.656;2022-12-18T00:33:59;-6.40;99.90
21047;DHT22;10682;50.874;3.656;2022-12-18T00:36:29;-6.50;99.90
21047;DHT22;10682;50.874;3.656;2022-12-18T00:38:59;-6.50;99.90
21047;DHT22;10682;50.874;3.656;2022-12-18T00:41:31;-6.60;99.90
21047;DHT22;10682;50.874;3.656;2022-12-18T00:44:20;-6.60;99.90
21047;DHT22;10682;50.874;3.656;2022-12-18T00:46:48;-6.60;99.90
21047;DHT22;10682;50.874;3.656;2022-12-18T00:49:16;-6.70;99.90
21047;DHT22;10682;50.874;3.656;2022-12-18T00:51:48;-6.60;99.90
21047;DHT22;10682;50.874;3.656;2022-12-18T00:54:18;-6.60;99.90
21047;DHT22;10682;50.874;3.656;2022-12-18T00:56:52;-6.60;99.90
21047;DHT22;10682;50.874;3.656;2022-12-18T00:59:19;-6.60;99.90
21047;DHT22;10682;50.874;3.656;2022-12-18T01:01:47;-6.60;99.90
21047;DHT22;10682;50.874;3.656;2022-12-18T01:04:17;-6.70;99.90
21047;DHT22;10682;50.874;3.656;2022-12-18T01:06:48;-6.70;99.90
21047;DHT22;10682;50.874;3.656;2022-12-18T01:09:17;-6.80;99.90
21047;DHT22;10682;50.874;3.656;2022-12-18T01:11:44;-6.90;99.90
21047;DHT22;10682;50.874;3.656;2022-12-18T01:14:11;-6.90;99.90
21047;DHT22;10682;50.874;3.656;2022-12-18T01:16:38;-7.00;99.90
21047;DHT22;10682;50.874;3.656;2022-12-18T01:19:05;-7.10;99.90
21047;DHT22;10682;50.874;3.656;2022-12-18T01:21:32;-7.20;99.90
21047;DHT22;10682;50.874;3.656;2022-12-18T01:24:03;-7.30;99.90
21047;DHT22;10682;50.874;3.656;2022-12-18T01:26:31;-7.40;99.90
21047;DHT22;10682;50.874;3.656;2022-12-18T01:28:58;-7.50;99.90
21047;DHT22;10682;50.874;3.656;2022-12-18T01:31:31;-7.60;99.90
21047;DHT22;10682;50.874;3.656;2022-12-18T01:34:04;-7.60;99.90
21047;DHT22;10682;50.874;3.656;2022-12-18T01:36:34;-7.60;99.90
21047;DHT22;10682;50.874;3.656;2022-12-18T01:39:09;-7.60;99.90
21047;DHT22;10682;50.874;3.656;2022-12-18T01:41:46;-7.60;99.90
21047;DHT22;10682;50.874;3.656;2022-12-18T01:47:39;-7.60;99.90
21047;DHT22;10682;50.874;3.656;2022-12-18T01:50:36;-7.50;99.90
21047;DHT22;10682;50.874;3.656;2022-12-18T01:53:24;-7.50;99.90
21047;DHT22;10682;50.874;3.656;2022-12-18T01:55:58;-7.50;99.90
21047;DHT22;10682;50.874;3.656;2022-12-18T01:58:52;-7.60;99.90
21047;DHT22;10682;50.874;3.656;2022-12-18T02:01:23;-7.60;99.90
21047;DHT22;10682;50.874;3.656;2022-12-18T02:03:53;-7.70;99.90
21047;DHT22;10682;50.874;3.656;2022-12-18T02:06:39;-7.70;99.90
21047;DHT22;10682;50.874;3.656;2022-12-18T02:09:22;-7.70;99.90
21047;DHT22;10682;50.874;3.656;2022-12-18T02:12:21;-7.70;99.90
21047;DHT22;10682;50.874;3.656;2022-12-18T02:18:27;-7.60;99.90
21047;DHT22;10682;50.874;3.656;2022-12-18T02:27:07;-7.80;99.90
21047;DHT22;10682;50.874;3.656;2022-12-18T02:29:50;-7.80;99.90
21047;DHT22;10682;50.874;3.656;2022-12-18T02:32:29;-7.80;99.90
21047;DHT22;10682;50.874;3.656;2022-12-18T02:34:59;-7.80;99.90
21047;DHT22;10682;50.874;3.656;2022-12-18T02:37:30;-7.80;99.90
21047;DHT22;10682;50.874;3.656;2022-12-18T02:39:59;-7.80;99.90
21047;DHT22;10682;50.874;3.656;2022-12-18T02:42:29;-7.90;99.90
21047;DHT22;10682;50.874;3.656;2022-12-18T02:45:00;-7.90;99.90
21047;DHT22;10682;50.874;3.656;2022-12-18T02:47:37;-7.90;99.90
21047;DHT22;10682;50.874;3.656;2022-12-18T02:56:13;-7.80;99.90
21047;DHT22;10682;50.874;3.656;2022-12-18T03:04:58;-7.90;99.90
21047;DHT22;10682;50.874;3.656;2022-12-18T03:08:12;-7.90;99.90
21047;DHT22;10682;50.874;3.656;2022-12-18T03:11:09;-7.90;99.90
21047;DHT22;10682;50.874;3.656;2022-12-18T03:13:54;-8.00;99.90
21047;DHT22;10682;50.874;3.656;2022-12-18T03:16:27;-8.00;99.90
21047;DHT22;10682;50.874;3.656;2022-12-18T03:18:58;-8.10;99.90
21047;DHT22;10682;50.874;3.656;2022-12-18T03:21:33;-8.10;99.90
21047;DHT22;10682;50.874;3.656;2022-12-18T03:24:07;-8.10;99.90
21047;DHT22;10682;50.874;3.656;2022-12-18T03:26:37;-8.10;99.90
21047;DHT22;10682;50.874;3.656;2022-12-18T03:29:14;-8.00;99.90
21047;DHT22;10682;50.874;3.656;2022-12-18T03:31:58;-8.00;99.90
21047;DHT22;10682;50.874;3.656;2022-12-18T03:34:36;-8.00;99.90
21047;DHT22;10682;50.874;3.656;2022-12-18T03:37:05;-7.90;99.90
21047;DHT22;10682;50.874;3.656;2022-12-18T03:39:38;-7.80;99.90
21047;DHT22;10682;50.874;3.656;2022-12-18T03:42:14;-7.80;99.90
21047;DHT22;10682;50.874;3.656;2022-12-18T03:47:36;-7.70;99.90
21047;DHT22;10682;50.874;3.656;2022-12-18T03:50:53;-7.70;99.90
21047;DHT22;10682;50.874;3.656;2022-12-18T03:56:06;-7.70;99.90
21047;DHT22;10682;50.874;3.656;2022-12-18T03:58:41;-7.70;99.90
21047;DHT22;10682;50.874;3.656;2022-12-18T04:01:15;-7.80;99.90
21047;DHT22;10682;50.874;3.656;2022-12-18T04:03:45;-7.80;99.90
21047;DHT22;10682;50.874;3.656;2022-12-18T04:06:14;-7.80;99.90
21047;DHT22;10682;50.874;3.656;2022-12-18T04:08:44;-7.90;99.90
21047;DHT22;10682;50.874;3.656;2022-12-18T04:11:11;-7.90;99.90
21047;DHT22;10682;50.874;3.656;2022-12-18T04:13:38;-7.90;99.90
21047;DHT22;10682;50.874;3.656;2022-12-18T04:16:09;-8.00;99.90
21047;DHT22;10682;50.874;3.656;2022-12-18T04:18:39;-8.20;99.90
21047;DHT22;10682;50.874;3.656;2022-12-18T04:21:06;-8.20;99.90
21047;DHT22;10682;50.874;3.656;2022-12-18T04:23:33;-8.30;99.90
21047;DHT22;10682;50.874;3.656;2022-12-18T04:26:00;-8.40;99.90
21047;DHT22;10682;50.874;3.656;2022-12-18T04:28:27;-8.40;99.90
21047;DHT22;10682;50.874;3.656;2022-12-18T04:30:54;-8.50;99.90
21047;DHT22;10682;50.874;3.656;2022-12-18T04:33:23;-8.50;99.90
21047;DHT22;10682;50.874;3.656;2022-12-18T04:35:50;-8.40;99.90
21047;DHT22;10682;50.874;3.656;2022-12-18T04:38:17;-8.40;99.90
21047;DHT22;10682;50.874;3.656;2022-12-18T04:40:46;-8.40;99.90
21047;DHT22;10682;50.874;3.656;2022-12-18T04:43:13;-8.40;99.90
21047;DHT22;10682;50.874;3.656;2022-12-18T04:45:40;-8.50;99.90
21047;DHT22;10682;50.874;3.656;2022-12-18T04:48:07;-8.40;99.90
21047;DHT22;10682;50.874;3.656;2022-12-18T04:50:34;-8.40;99.90
21047;DHT22;10682;50.874;3.656;2022-12-18T04:53:06;-8.40;99.90
21047;DHT22;10682;50.874;3.656;2022-12-18T04:55:39;-8.40;99.90
21047;DHT22;10682;50.874;3.656;2022-12-18T04:58:09;-8.30;99.90
21047;DHT22;10682;50.874;3.656;2022-12-18T05:00:36;-8.30;99.90
21047;DHT22;10682;50.874;3.656;2022-12-18T05:03:03;-8.30;99.90
21047;DHT22;10682;50.874;3.656;2022-12-18T05:05:34;-8.30;99.90
21047;DHT22;10682;50.874;3.656;2022-12-18T05:08:02;-8.30;99.90
21047;DHT22;10682;50.874;3.656;2022-12-18T05:10:29;-8.30;99.90
21047;DHT22;10682;50.874;3.656;2022-12-18T05:13:07;-8.20;99.90
21047;DHT22;10682;50.874;3.656;2022-12-18T05:15:36;-8.10;99.90
21047;DHT22;10682;50.874;3.656;2022-12-18T05:18:04;-8.10;99.90
21047;DHT22;10682;50.874;3.656;2022-12-18T05:20:31;-8.00;99.90
21047;DHT22;10682;50.874;3.656;2022-12-18T05:23:02;-8.00;99.90
21047;DHT22;10682;50.874;3.656;2022-12-18T05:25:29;-7.90;99.90
21047;DHT22;10682;50.874;3.656;2022-12-18T05:27:56;-7.90;99.90
21047;DHT22;10682;50.874;3.656;2022-12-18T05:30:24;-7.90;99.90
21047;DHT22;10682;50.874;3.656;2022-12-18T05:32:51;-7.90;99.90
21047;DHT22;10682;50.874;3.656;2022-12-18T05:35:22;-7.90;99.90
21047;DHT22;10682;50.874;3.656;2022-12-18T05:37:50;-7.90;99.90
21047;DHT22;10682;50.874;3.656;2022-12-18T05:40:17;-7.90;99.90
21047;DHT22;10682;50.874;3.656;2022-12-18T05:42:48;-8.00;99.90
21047;DHT22;10682;50.874;3.656;2022-12-18T05:45:15;-8.00;99.90
21047;DHT22;10682;50.874;3.656;2022-12-18T05:47:42;-8.00;99.90
21047;DHT22;10682;50.874;3.656;2022-12-18T05:50:09;-8.00;99.90
21047;DHT22;10682;50.874;3.656;2022-12-18T05:52:37;-8.00;99.90
21047;DHT22;10682;50.874;3.656;2022-12-18T05:55:04;-8.00;99.90
21047;DHT22;10682;50.874;3.656;2022-12-18T05:57:31;-8.10;99.90
21047;DHT22;10682;50.874;3.656;2022-12-18T05:59:58;-8.10;99.90
21047;DHT22;10682;50.874;3.656;2022-12-18T06:02:31;-8.10;99.90
21047;DHT22;10682;50.874;3.656;2022-12-18T06:04:58;-8.10;99.90
21047;DHT22;10682;50.874;3.656;2022-12-18T06:07:31;-8.10;99.90
21047;DHT22;10682;50.874;3.656;2022-12-18T06:09:58;-8.10;99.90
21047;DHT22;10682;50.874;3.656;2022-12-18T06:12:25;-8.10;99.90
21047;DHT22;10682;50.874;3.656;2022-12-18T06:14:53;-8.10;99.90
21047;DHT22;10682;50.874;3.656;2022-12-18T06:17:21;-8.10;99.90
21047;DHT22;10682;50.874;3.656;2022-12-18T06:19:50;-8.00;99.90
21047;DHT22;10682;50.874;3.656;2022-12-18T06:22:22;-8.00;99.90
21047;DHT22;10682;50.874;3.656;2022-12-18T06:24:49;-7.90;99.90
21047;DHT22;10682;50.874;3.656;2022-12-18T06:27:16;-7.80;99.90
21047;DHT22;10682;50.874;3.656;2022-12-18T06:29:43;-7.80;99.90
21047;DHT22;10682;50.874;3.656;2022-12-18T06:32:12;-7.80;99.90
21047;DHT22;10682;50.874;3.656;2022-12-18T06:34:42;-7.80;99.90
21047;DHT22;10682;50.874;3.656;2022-12-18T06:37:09;-7.80;99.90
21047;DHT22;10682;50.874;3.656;2022-12-18T06:39:36;-7.90;99.90
21047;DHT22;10682;50.874;3.656;2022-12-18T06:42:03;-7.80;99.90
21047;DHT22;10682;50.874;3.656;2022-12-18T06:44:31;-7.70;99.90
21047;DHT22;10682;50.874;3.656;2022-12-18T06:46:57;-7.70;99.90
21047;DHT22;10682;50.874;3.656;2022-12-18T06:49:24;-7.60;99.90
21047;DHT22;10682;50.874;3.656;2022-12-18T06:51:56;-7.60;99.90
21047;DHT22;10682;50.874;3.656;2022-12-18T06:54:23;-7.50;99.90
21047;DHT22;10682;50.874;3.656;2022-12-18T06:56:50;-7.40;99.90
21047;DHT22;10682;50.874;3.656;2022-12-18T06:59:19;-7.30;99.90
21047;DHT22;10682;50.874;3.656;2022-12-18T07:01:49;-7.20;99.90
21047;DHT22;10682;50.874;3.656;2022-12-18T07:04:20;-7.20;99.90
21047;DHT22;10682;50.874;3.656;2022-12-18T07:06:54;-7.20;99.90
21047;DHT22;10682;50.874;3.656;2022-12-18T07:09:21;-7.20;99.90
21047;DHT22;10682;50.874;3.656;2022-12-18T07:11:48;-7.20;99.90
21047;DHT22;10682;50.874;3.656;2022-12-18T07:14:15;-7.20;99.90
21047;DHT22;10682;50.874;3.656;2022-12-18T07:16:42;-7.20;99.90
21047;DHT22;10682;50.874;3.656;2022-12-18T07:19:09;-7.30;99.90
21047;DHT22;10682;50.874;3.656;2022-12-18T07:21:36;-7.30;99.90
21047;DHT22;10682;50.874;3.656;2022-12-18T07:24:03;-7.30;99.90
21047;DHT22;10682;50.874;3.656;2022-12-18T07:26:31;-7.30;99.90
21047;DHT22;10682;50.874;3.656;2022-12-18T07:28:58;-7.30;99.90
21047;DHT22;10682;50.874;3.656;2022-12-18T07:31:25;-7.20;99.90
21047;DHT22;10682;50.874;3.656;2022-12-18T07:33:53;-7.10;99.90
21047;DHT22;10682;50.874;3.656;2022-12-18T07:36:21;-7.00;99.90
21047;DHT22;10682;50.874;3.656;2022-12-18T07:38:49;-6.90;99.90
21047;DHT22;10682;50.874;3.656;2022-12-18T07:41:18;-6.80;99.90
21047;DHT22;10682;50.874;3.656;2022-12-18T07:43:45;-6.60;99.90
21047;DHT22;10682;50.874;3.656;2022-12-18T07:46:13;-6.50;99.90
21047;DHT22;10682;50.874;3.656;2022-12-18T07:48:42;-6.30;99.90
21047;DHT22;10682;50.874;3.656;2022-12-18T07:51:15;-6.20;99.90
21047;DHT22;10682;50.874;3.656;2022-12-18T07:53:42;-6.10;99.90
21047;DHT22;10682;50.874;3.656;2022-12-18T07:56:11;-5.90;99.90
21047;DHT22;10682;50.874;3.656;2022-12-18T07:58:57;-5.80;99.90
21047;DHT22;10682;50.874;3.656;2022-12-18T08:01:25;-5.70;99.90
21047;DHT22;10682;50.874;3.656;2022-12-18T08:03:52;-5.60;99.90
21047;DHT22;10682;50.874;3.656;2022-12-18T08:06:19;-5.60;99.90
21047;DHT22;10682;50.874;3.656;2022-12-18T08:08:54;-5.50;99.90
21047;DHT22;10682;50.874;3.656;2022-12-18T08:11:24;-5.40;99.90
21047;DHT22;10682;50.874;3.656;2022-12-18T08:13:52;-5.20;99.90
21047;DHT22;10682;50.874;3.656;2022-12-18T08:16:20;-5.10;99.90
21047;DHT22;10682;50.874;3.656;2022-12-18T08:18:47;-4.80;99.90
21047;DHT22;10682;50.874;3.656;2022-12-18T08:21:21;-4.50;99.90
21047;DHT22;10682;50.874;3.656;2022-12-18T08:23:51;-4.10;99.90
21047;DHT22;10682;50.874;3.656;2022-12-18T08:26:19;-3.40;99.90
21047;DHT22;10682;50.874;3.656;2022-12-18T08:28:48;-2.90;99.90
21047;DHT22;10682;50.874;3.656;2022-12-18T08:31:17;-2.60;99.90
21047;DHT22;10682;50.874;3.656;2022-12-18T08:33:45;-2.60;99.90
21047;DHT22;10682;50.874;3.656;2022-12-18T08:36:12;-2.50;99.90
21047;DHT22;10682;50.874;3.656;2022-12-18T08:38:39;-2.50;99.90
21047;DHT22;10682;50.874;3.656;2022-12-18T08:41:11;-2.50;99.90
21047;DHT22;10682;50.874;3.656;2022-12-18T08:43:39;-2.50;99.90
21047;DHT22;10682;50.874;3.656;2022-12-18T08:46:27;-2.50;99.90
21047;DHT22;10682;50.874;3.656;2022-12-18T08:48:57;-2.50;99.90
21047;DHT22;10682;50.874;3.656;2022-12-18T08:51:24;-2.60;99.90
21047;DHT22;10682;50.874;3.656;2022-12-18T08:53:51;-2.60;99.90
21047;DHT22;10682;50.874;3.656;2022-12-18T08:56:18;-2.60;99.90
21047;DHT22;10682;50.874;3.656;2022-12-18T08:58:45;-2.50;99.90
21047;DHT22;10682;50.874;3.656;2022-12-18T09:01:13;-2.50;99.90
21047;DHT22;10682;50.874;3.656;2022-12-18T09:03:40;-2.50;99.90
21047;DHT22;10682;50.874;3.656;2022-12-18T09:06:08;-2.40;99.90
21047;DHT22;10682;50.874;3.656;2022-12-18T09:08:36;-2.40;99.90
21047;DHT22;10682;50.874;3.656;2022-12-18T09:11:04;-2.40;99.90
21047;DHT22;10682;50.874;3.656;2022-12-18T09:13:31;-2.30;99.90
21047;DHT22;10682;50.874;3.656;2022-12-18T09:15:58;-2.30;99.90
21047;DHT22;10682;50.874;3.656;2022-12-18T09:18:25;-2.20;99.90
21047;DHT22;10682;50.874;3.656;2022-12-18T09:20:52;-2.20;99.90
21047;DHT22;10682;50.874;3.656;2022-12-18T09:23:20;-2.20;99.90
21047;DHT22;10682;50.874;3.656;2022-12-18T09:25:47;-2.10;99.90
21047;DHT22;10682;50.874;3.656;2022-12-18T09:28:16;-2.00;99.90
21047;DHT22;10682;50.874;3.656;2022-12-18T09:30:48;-1.90;99.90
21047;DHT22;10682;50.874;3.656;2022-12-18T09:33:16;-1.90;99.90
21047;DHT22;10682;50.874;3.656;2022-12-18T09:35:44;-1.90;99.90
21047;DHT22;10682;50.874;3.656;2022-12-18T09:38:14;-1.80;99.90
21047;DHT22;10682;50.874;3.656;2022-12-18T09:43:46;-1.70;99.90
21047;DHT22;10682;50.874;3.656;2022-12-18T09:46:23;-1.80;99.90
21047;DHT22;10682;50.874;3.656;2022-12-18T09:48:57;-1.70;99.90
21047;DHT22;10682;50.874;3.656;2022-12-18T09:51:37;-1.60;99.90
21047;DHT22;10682;50.874;3.656;2022-12-18T09:54:12;-1.60;99.90
21047;DHT22;10682;50.874;3.656;2022-12-18T09:56:43;-1.60;99.90
21047;DHT22;10682;50.874;3.656;2022-12-18T09:59:24;-1.50;99.90
21047;DHT22;10682;50.874;3.656;2022-12-18T10:01:54;-1.60;99.90
21047;DHT22;10682;50.874;3.656;2022-12-18T10:04:21;-1.50;99.90
21047;DHT22;10682;50.874;3.656;2022-12-18T10:06:58;-1.40;99.90
21047;DHT22;10682;50.874;3.656;2022-12-18T10:09:59;-1.40;99.90
21047;DHT22;10682;50.874;3.656;2022-12-18T10:17:57;-1.20;99.90
21047;DHT22;10682;50.874;3.656;2022-12-18T10:20:41;-1.30;99.90
21047;DHT22;10682;50.874;3.656;2022-12-18T10:26:13;-1.20;99.90
21047;DHT22;10682;50.874;3.656;2022-12-18T10:28:41;-1.20;99.90
21047;DHT22;10682;50.874;3.656;2022-12-18T10:31:16;-1.20;99.90
21047;DHT22;10682;50.874;3.656;2022-12-18T10:33:45;-1.20;99.90
21047;DHT22;10682;50.874;3.656;2022-12-18T10:36:12;-1.20;99.90
21047;DHT22;10682;50.874;3.656;2022-12-18T10:38:40;-1.10;99.90
21047;DHT22;10682;50.874;3.656;2022-12-18T10:43:47;-1.10;99.90
21047;DHT22;10682;50.874;3.656;2022-12-18T10:46:17;-1.10;99.90
21047;DHT22;10682;50.874;3.656;2022-12-18T10:54:16;-0.90;99.90
21047;DHT22;10682;50.874;3.656;2022-12-18T10:56:45;-0.90;99.90
21047;DHT22;10682;50.874;3.656;2022-12-18T10:59:15;-1.00;99.90
21047;DHT22;10682;50.874;3.656;2022-12-18T11:01:51;-1.00;99.90
21047;DHT22;10682;50.874;3.656;2022-12-18T11:04:24;-1.00;99.90
21047;DHT22;10682;50.874;3.656;2022-12-18T11:09:35;-1.00;99.90
21047;DHT22;10682;50.874;3.656;2022-12-18T11:12:18;-1.00;99.90
21047;DHT22;10682;50.874;3.656;2022-12-18T11:14:47;-0.90;99.90
21047;DHT22;10682;50.874;3.656;2022-12-18T11:23:10;-0.90;99.90
21047;DHT22;10682;50.874;3.656;2022-12-18T11:25:39;-0.90;99.90
21047;DHT22;10682;50.874;3.656;2022-12-18T11:28:27;-0.90;99.90
21047;DHT22;10682;50.874;3.656;2022-12-18T11:31:28;-0.90;99.90
21047;DHT22;10682;50.874;3.656;2022-12-18T11:34:12;-0.80;99.90
21047;DHT22;10682;50.874;3.656;2022-12-18T11:37:00;-0.90;99.90
21047;DHT22;10682;50.874;3.656;2022-12-18T11:39:39;-0.90;99.90
21047;DHT22;10682;50.874;3.656;2022-12-18T11:47:54;-0.80;99.90
21047;DHT22;10682;50.874;3.656;2022-12-18T11:50:56;-0.70;99.90
21047;DHT22;10682;50.874;3.656;2022-12-18T11:53:26;-0.60;99.90
21047;DHT22;10682;50.874;3.656;2022-12-18T11:55:56;-0.60;99.90
21047;DHT22;10682;50.874;3.656;2022-12-18T11:58:47;-0.50;99.90
21047;DHT22;10682;50.874;3.656;2022-12-18T12:01:53;-0.50;99.90
21047;DHT22;10682;50.874;3.656;2022-12-18T12:31:17;-0.20;99.90
21047;DHT22;10682;50.874;3.656;2022-12-18T12:36:38;-0.30;99.90
21047;DHT22;10682;50.874;3.656;2022-12-18T12:39:18;-0.30;99.90
21047;DHT22;10682;50.874;3.656;2022-12-18T12:41:48;-0.40;99.90
21047;DHT22;10682;50.874;3.656;2022-12-18T12:44:44;-0.40;99.90
21047;DHT22;10682;50.874;3.656;2022-12-18T12:47:33;-0.40;99.90
21047;DHT22;10682;50.874;3.656;2022-12-18T12:50:12;-0.30;99.90
21047;DHT22;10682;50.874;3.656;2022-12-18T12:52:52;-0.30;99.90
21047;DHT22;10682;50.874;3.656;2022-12-18T12:55:24;-0.30;99.90
21047;DHT22;10682;50.874;3.656;2022-12-18T13:04:03;-0.10;99.90
21047;DHT22;10682;50.874;3.656;2022-12-18T13:07:15;-0.20;99.90
21047;DHT22;10682;50.874;3.656;2022-12-18T13:10:11;-0.20;99.90
21047;DHT22;10682;50.874;3.656;2022-12-18T13:13:05;-0.20;99.90
21047;DHT22;10682;50.874;3.656;2022-12-18T13:15:47;-0.20;99.90
21047;DHT22;10682;50.874;3.656;2022-12-18T13:18:22;-0.30;99.90
21047;DHT22;10682;50.874;3.656;2022-12-18T13:23:36;-0.20;99.90
21047;DHT22;10682;50.874;3.656;2022-12-18T13:31:14;-0.20;99.90
21047;DHT22;10682;50.874;3.656;2022-12-18T13:34:29;-0.10;99.90
21047;DHT22;10682;50.874;3.656;2022-12-18T13:39:58;0.00;99.90
21047;DHT22;10682;50.874;3.656;2022-12-18T13:42:38;0.00;99.90
21047;DHT22;10682;50.874;3.656;2022-12-18T13:46:06;0.00;99.90
21047;DHT22;10682;50.874;3.656;2022-12-18T13:51:33;0.20;99.90
21047;DHT22;10682;50.874;3.656;2022-12-18T13:54:02;0.20;99.90
21047;DHT22;10682;50.874;3.656;2022-12-18T13:56:44;0.20;99.90
21047;DHT22;10682;50.874;3.656;2022-12-18T13:59:22;0.00;99.90
21047;DHT22;10682;50.874;3.656;2022-12-18T14:01:54;0.00;99.90
21047;DHT22;10682;50.874;3.656;2022-12-18T14:04:33;0.00;99.90
21047;DHT22;10682;50.874;3.656;2022-12-18T14:09:46;0.20;99.90
21047;DHT22;10682;50.874;3.656;2022-12-18T14:12:21;0.10;99.90
21047;DHT22;10682;50.874;3.656;2022-12-18T14:18:12;0.20;99.90
21047;DHT22;10682;50.874;3.656;2022-12-18T14:20:59;0.20;99.90
21047;DHT22;10682;50.874;3.656;2022-12-18T14:26:03;0.20;99.90
21047;DHT22;10682;50.874;3.656;2022-12-18T14:28:46;0.30;99.90
21047;DHT22;10682;50.874;3.656;2022-12-18T14:31:21;0.30;99.90
21047;DHT22;10682;50.874;3.656;2022-12-18T14:33:55;0.30;99.90
21047;DHT22;10682;50.874;3.656;2022-12-18T14:36:28;0.30;99.90
21047;DHT22;10682;50.874;3.656;2022-12-18T14:38:57;0.30;99.90
21047;DHT22;10682;50.874;3.656;2022-12-18T14:41:28;0.30;99.90
21047;DHT22;10682;50.874;3.656;2022-12-18T14:43:56;0.40;99.90
21047;DHT22;10682;50.874;3.656;2022-12-18T14:52:03;0.30;99.90
21047;DHT22;10682;50.874;3.656;2022-12-18T14:54:34;0.30;99.90
21047;DHT22;10682;50.874;3.656;2022-12-18T14:57:25;0.20;99.90
21047;DHT22;10682;50.874;3.656;2022-12-18T15:00:06;0.10;99.90
21047;DHT22;10682;50.874;3.656;2022-12-18T15:02:37;0.10;99.90
21047;DHT22;10682;50.874;3.656;2022-12-18T15:05:21;0.20;99.90
21047;DHT22;10682;50.874;3.656;2022-12-18T15:08:00;0.10;99.90
21047;DHT22;10682;50.874;3.656;2022-12-18T15:10:31;0.20;99.90
21047;DHT22;10682;50.874;3.656;2022-12-18T15:20:55;0.30;99.90
21047;DHT22;10682;50.874;3.656;2022-12-18T15:23:35;0.30;99.90
21047;DHT22;10682;50.874;3.656;2022-12-18T15:26:06;0.30;99.90
21047;DHT22;10682;50.874;3.656;2022-12-18T15:28:53;0.30;99.90
21047;DHT22;10682;50.874;3.656;2022-12-18T15:31:32;0.40;99.90
21047;DHT22;10682;50.874;3.656;2022-12-18T15:34:19;0.40;99.90
21047;DHT22;10682;50.874;3.656;2022-12-18T15:36:47;0.40;99.90
21047;DHT22;10682;50.874;3.656;2022-12-18T15:39:14;0.40;99.90
21047;DHT22;10682;50.874;3.656;2022-12-18T15:41:41;0.40;99.90
21047;DHT22;10682;50.874;3.656;2022-12-18T15:44:28;0.40;99.90
21047;DHT22;10682;50.874;3.656;2022-12-18T15:46:55;0.50;99.90
21047;DHT22;10682;50.874;3.656;2022-12-18T15:49:23;0.50;99.90
21047;DHT22;10682;50.874;3.656;2022-12-18T15:51:53;0.50;99.90
21047;DHT22;10682;50.874;3.656;2022-12-18T15:54:21;0.40;99.90
21047;DHT22;10682;50.874;3.656;2022-12-18T15:57:12;0.40;99.90
21047;DHT22;10682;50.874;3.656;2022-12-18T15:59:54;0.40;99.90
21047;DHT22;10682;50.874;3.656;2022-12-18T16:02:23;0.40;99.90
21047;DHT22;10682;50.874;3.656;2022-12-18T16:04:51;0.40;99.90
21047;DHT22;10682;50.874;3.656;2022-12-18T16:07:20;0.40;99.90
21047;DHT22;10682;50.874;3.656;2022-12-18T16:09:52;0.50;99.90
21047;DHT22;10682;50.874;3.656;2022-12-18T16:12:23;0.50;99.90
21047;DHT22;10682;50.874;3.656;2022-12-18T16:14:51;0.50;99.90
21047;DHT22;10682;50.874;3.656;2022-12-18T16:17:19;0.50;99.90
21047;DHT22;10682;50.874;3.656;2022-12-18T16:19:46;0.60;99.90
21047;DHT22;10682;50.874;3.656;2022-12-18T16:22:27;0.60;99.90
21047;DHT22;10682;50.874;3.656;2022-12-18T16:24:56;0.60;99.90
21047;DHT22;10682;50.874;3.656;2022-12-18T16:27:24;0.60;99.90
21047;DHT22;10682;50.874;3.656;2022-12-18T16:29:51;0.60;99.90
21047;DHT22;10682;50.874;3.656;2022-12-18T16:32:20;0.60;99.90
21047;DHT22;10682;50.874;3.656;2022-12-18T16:34:49;0.50;99.90
21047;DHT22;10682;50.874;3.656;2022-12-18T16:37:16;0.60;99.90
21047;DHT22;10682;50.874;3.656;2022-12-18T16:39:43;0.60;99.90
21047;DHT22;10682;50.874;3.656;2022-12-18T16:42:15;0.60;99.90
21047;DHT22;10682;50.874;3.656;2022-12-18T16:44:48;0.60;99.90
21047;DHT22;10682;50.874;3.656;2022-12-18T16:47:16;0.60;99.90
21047;DHT22;10682;50.874;3.656;2022-12-18T16:49:44;0.60;99.90
21047;DHT22;10682;50.874;3.656;2022-12-18T16:52:11;0.70;99.90
21047;DHT22;10682;50.874;3.656;2022-12-18T16:54:39;0.70;99.90
21047;DHT22;10682;50.874;3.656;2022-12-18T16:57:06;0.80;99.90
21047;DHT22;10682;50.874;3.656;2022-12-18T16:59:35;0.80;99.90
21047;DHT22;10682;50.874;3.656;2022-12-18T17:02:02;0.90;99.90
21047;DHT22;10682;50.874;3.656;2022-12-18T17:04:29;0.90;99.90
21047;DHT22;10682;50.874;3.656;2022-12-18T17:06:56;0.90;99.90
21047;DHT22;10682;50.874;3.656;2022-12-18T17:09:23;0.90;99.90
21047;DHT22;10682;50.874;3.656;2022-12-18T17:11:53;0.90;99.90
21047;DHT22;10682;50.874;3.656;2022-12-18T17:14:22;1.00;99.90
21047;DHT22;10682;50.874;3.656;2022-12-18T17:16:53;1.00;99.90
21047;DHT22;10682;50.874;3.656;2022-12-18T17:19:40;0.90;99.90
21047;DHT22;10682;50.874;3.656;2022-12-18T17:22:07;1.00;99.90
21047;DHT22;10682;50.874;3.656;2022-12-18T17:24:35;0.90;99.90
21047;DHT22;10682;50.874;3.656;2022-12-18T17:27:03;1.00;99.90
21047;DHT22;10682;50.874;3.656;2022-12-18T17:29:30;0.90;99.90
21047;DHT22;10682;50.874;3.656;2022-12-18T17:31:57;0.90;99.90
21047;DHT22;10682;50.874;3.656;2022-12-18T17:34:26;0.90;99.90
21047;DHT22;10682;50.874;3.656;2022-12-18T17:36:55;0.90;99.90
21047;DHT22;10682;50.874;3.656;2022-12-18T17:39:22;0.90;99.90
21047;DHT22;10682;50.874;3.656;2022-12-18T17:41:49;0.90;99.90
21047;DHT22;10682;50.874;3.656;2022-12-18T17:44:17;0.90;99.90
21047;DHT22;10682;50.874;3.656;2022-12-18T17:46:45;1.00;99.90
21047;DHT22;10682;50.874;3.656;2022-12-18T17:49:12;0.90;99.90
21047;DHT22;10682;50.874;3.656;2022-12-18T17:51:40;0.90;99.90
21047;DHT22;10682;50.874;3.656;2022-12-18T17:54:10;0.90;99.90
21047;DHT22;10682;50.874;3.656;2022-12-18T17:56:38;0.90;99.90
21047;DHT22;10682;50.874;3.656;2022-12-18T17:59:05;0.90;99.90
21047;DHT22;10682;50.874;3.656;2022-12-18T18:01:33;0.90;99.90
21047;DHT22;10682;50.874;3.656;2022-12-18T18:04:06;0.90;99.90
21047;DHT22;10682;50.874;3.656;2022-12-18T18:06:33;1.00;99.90
21047;DHT22;10682;50.874;3.656;2022-12-18T18:09:05;1.00;99.90
21047;DHT22;10682;50.874;3.656;2022-12-18T18:11:43;0.90;99.90
21047;DHT22;10682;50.874;3.656;2022-12-18T18:14:29;0.90;99.90
21047;DHT22;10682;50.874;3.656;2022-12-18T18:16:56;0.90;99.90
21047;DHT22;10682;50.874;3.656;2022-12-18T18:19:30;0.90;99.90
21047;DHT22;10682;50.874;3.656;2022-12-18T18:21:57;0.90;99.90
21047;DHT22;10682;50.874;3.656;2022-12-18T18:24:25;1.00;99.90